createdAt,value
2018-03-24T00:01:57.013Z,3.30
2018-03-24T00:04:24.554Z,3.30
2018-03-24T00:06:52.086Z,3.40
2018-03-24T00:09:19.705Z,3.40
2018-03-24T00:11:48.010Z,3.30
2018-03-24T00:14:15.592Z,3.30
2018-03-24T00:16:43.529Z,3.30
2018-03-24T00:19:11.260Z,3.40
2018-03-24T00:21:38.891Z,3.40
2018-03-24T00:24:07.363Z,3.40
2018-03-24T00:26:35.061Z,3.40
2018-03-24T00:29:03.384Z,3.40
2018-03-24T00:31:30.900Z,3.30
2018-03-24T00:33:58.450Z,3.40
2018-03-24T00:36:25.968Z,3.40
2018-03-24T00:38:54.408Z,3.30
2018-03-24T00:41:23.432Z,3.20
2018-03-24T00:43:50.980Z,3.20
2018-03-24T00:46:18.504Z,3.20
2018-03-24T00:48:46.819Z,3.20
2018-03-24T00:51:14.376Z,3.20
2018-03-24T00:53:41.907Z,3.20
2018-03-24T00:56:09.437Z,3.20
2018-03-24T00:58:36.976Z,3.20
2018-03-24T01:01:04.500Z,3.30
2018-03-24T01:03:32.032Z,3.30
2018-03-24T01:06:00.308Z,3.30
2018-03-24T01:08:27.880Z,3.30
2018-03-24T01:10:55.427Z,3.30
2018-03-24T01:13:22.956Z,3.30
2018-03-24T01:15:50.479Z,3.30
2018-03-24T01:18:18.819Z,3.40
2018-03-24T01:20:47.120Z,3.40
2018-03-24T01:23:14.652Z,3.40
2018-03-24T01:25:42.181Z,3.40
2018-03-24T01:28:10.669Z,3.40
2018-03-24T01:30:38.229Z,3.30
2018-03-24T01:33:05.753Z,3.30
2018-03-24T01:35:33.288Z,3.30
2018-03-24T01:38:00.838Z,3.30
2018-03-24T01:40:28.391Z,3.30
2018-03-24T01:42:55.912Z,3.40
2018-03-24T01:45:24.215Z,3.40
2018-03-24T01:47:51.736Z,3.40
2018-03-24T01:50:19.265Z,3.40
2018-03-24T01:52:47.544Z,3.50
2018-03-24T01:55:15.104Z,3.40
2018-03-24T01:57:42.628Z,3.50
2018-03-24T02:00:10.276Z,3.50
2018-03-24T02:02:37.796Z,3.40
2018-03-24T02:05:06.097Z,3.40
2018-03-24T02:07:33.627Z,3.40
2018-03-24T02:10:01.193Z,3.30
2018-03-24T02:12:28.737Z,3.30
2018-03-24T02:14:56.273Z,3.30
2018-03-24T02:17:23.789Z,3.30
2018-03-24T02:19:51.336Z,3.20
2018-03-24T02:22:18.855Z,3.20
2018-03-24T02:24:53.988Z,3.20
2018-03-24T02:27:22.286Z,3.20
2018-03-24T02:29:49.828Z,3.20
2018-03-24T02:32:17.390Z,3.20
2018-03-24T02:34:44.928Z,3.20
2018-03-24T02:37:13.444Z,3.20
2018-03-24T02:39:41.786Z,3.20
2018-03-24T02:42:09.313Z,3.20
2018-03-24T02:44:36.825Z,3.20
2018-03-24T02:47:04.379Z,3.20
2018-03-24T02:49:31.901Z,3.20
2018-03-24T02:51:59.446Z,3.20
2018-03-24T02:54:27.034Z,3.20
2018-03-24T02:56:54.574Z,3.20
2018-03-24T02:59:22.102Z,3.20
2018-03-24T03:01:49.831Z,3.10
2018-03-24T03:04:17.361Z,3.20
2018-03-24T03:06:45.666Z,3.20
2018-03-24T03:09:13.199Z,3.10
2018-03-24T03:11:40.754Z,3.20
2018-03-24T03:14:08.303Z,3.10
2018-03-24T03:16:36.005Z,3.10
2018-03-24T03:19:04.291Z,3.20
2018-03-24T03:24:32.356Z,3.20
2018-03-24T03:26:59.906Z,3.20
2018-03-24T03:29:27.469Z,3.20
2018-03-24T03:32:04.896Z,3.20
2018-03-24T03:34:33.188Z,3.30
2018-03-24T03:37:00.745Z,3.20
2018-03-24T03:39:28.256Z,3.30
2018-03-24T03:41:55.805Z,3.30
2018-03-24T03:44:23.320Z,3.30
2018-03-24T03:46:51.635Z,3.30
2018-03-24T03:49:19.177Z,3.30
2018-03-24T03:51:46.725Z,3.30
2018-03-24T03:54:14.255Z,3.30
2018-03-24T03:56:41.813Z,3.30
2018-03-24T03:59:09.329Z,3.30
2018-03-24T04:01:36.863Z,3.20
2018-03-24T04:04:04.394Z,3.20
2018-03-24T04:06:32.703Z,3.20
2018-03-24T04:09:00.223Z,3.20
2018-03-24T04:11:27.761Z,3.30
2018-03-24T04:13:55.281Z,3.20
2018-03-24T04:16:23.579Z,3.10
2018-03-24T04:18:51.091Z,3.20
2018-03-24T04:21:19.377Z,3.20
2018-03-24T04:23:46.915Z,3.10
2018-03-24T04:26:14.497Z,3.20
2018-03-24T04:28:42.037Z,3.20
2018-03-24T04:31:10.541Z,3.10
2018-03-24T04:33:38.133Z,3.10
2018-03-24T04:36:05.657Z,3.10
2018-03-24T04:38:33.194Z,3.10
2018-03-24T04:41:01.472Z,3.10
2018-03-24T04:43:28.999Z,3.10
2018-03-24T04:45:57.280Z,3.10
2018-03-24T04:48:24.818Z,3.10
2018-03-24T04:50:52.351Z,3.10
2018-03-24T04:53:20.657Z,3.10
2018-03-24T04:55:48.174Z,3.10
2018-03-24T04:58:15.757Z,3.10
2018-03-24T05:00:43.241Z,3.10
2018-03-24T05:03:11.572Z,3.20
2018-03-24T05:05:39.093Z,3.20
2018-03-24T05:08:06.637Z,3.20
2018-03-24T05:10:34.161Z,3.20
2018-03-24T05:13:01.699Z,3.20
2018-03-24T05:15:29.221Z,3.20
2018-03-24T05:17:57.636Z,3.20
2018-03-24T05:20:25.169Z,3.20
2018-03-24T05:22:52.701Z,3.30
2018-03-24T05:25:20.215Z,3.30
2018-03-24T05:27:48.523Z,3.40
2018-03-24T05:30:16.629Z,3.40
2018-03-24T05:32:44.168Z,3.40
2018-03-24T05:35:11.800Z,3.40
2018-03-24T05:37:39.353Z,3.40
2018-03-24T05:40:07.688Z,3.50
2018-03-24T05:42:35.204Z,3.50
2018-03-24T05:45:02.741Z,3.50
2018-03-24T05:47:30.269Z,3.60
2018-03-24T05:49:58.575Z,3.60
2018-03-24T05:52:26.094Z,3.60
2018-03-24T05:54:53.621Z,3.70
2018-03-24T05:57:21.929Z,3.70
2018-03-24T05:59:49.529Z,3.70
2018-03-24T06:02:17.913Z,3.80
2018-03-24T06:04:45.463Z,3.80
2018-03-24T06:07:12.982Z,3.80
2018-03-24T06:09:40.606Z,3.90
2018-03-24T06:12:09.143Z,4.00
2018-03-24T06:14:36.681Z,4.00
2018-03-24T06:17:04.365Z,4.00
2018-03-24T06:19:32.681Z,4.10
2018-03-24T06:22:00.213Z,4.10
2018-03-24T06:24:27.765Z,4.10
2018-03-24T06:26:55.289Z,4.20
2018-03-24T06:29:22.824Z,4.20
2018-03-24T06:32:01.166Z,4.30
2018-03-24T06:34:28.704Z,4.30
2018-03-24T06:36:59.645Z,4.40
2018-03-24T06:39:27.174Z,4.40
2018-03-24T06:41:54.691Z,4.30
2018-03-24T06:44:22.224Z,4.30
2018-03-24T06:46:49.977Z,4.30
2018-03-24T06:49:17.533Z,4.30
2018-03-24T06:51:45.061Z,4.40
2018-03-24T06:54:12.586Z,4.40
2018-03-24T06:56:40.915Z,4.50
2018-03-24T06:59:08.450Z,4.40
2018-03-24T07:01:35.992Z,4.50
2018-03-24T07:04:03.503Z,4.60
2018-03-24T07:06:31.041Z,4.60
2018-03-24T07:08:59.384Z,4.70
2018-03-24T07:11:26.927Z,4.70
2018-03-24T07:13:54.444Z,4.80
2018-03-24T07:16:21.987Z,4.90
2018-03-24T07:18:49.527Z,5.00
2018-03-24T07:21:18.589Z,5.10
2018-03-24T07:23:46.121Z,5.10
2018-03-24T07:26:13.677Z,5.20
2018-03-24T07:28:41.202Z,5.30
2018-03-24T07:31:08.741Z,5.40
2018-03-24T07:33:37.020Z,5.60
2018-03-24T07:36:04.570Z,5.60
2018-03-24T07:38:32.083Z,5.70
2018-03-24T07:41:00.379Z,5.80
2018-03-24T07:43:27.949Z,5.80
2018-03-24T07:45:55.476Z,5.90
2018-03-24T07:48:23.029Z,6.10
2018-03-24T07:50:50.586Z,6.20
2018-03-24T07:53:19.341Z,6.30
2018-03-24T07:55:46.884Z,6.30
2018-03-24T07:58:14.398Z,6.30
2018-03-24T08:00:41.931Z,6.40
2018-03-24T08:03:10.264Z,6.40
2018-03-24T08:05:37.794Z,6.40
2018-03-24T08:08:05.385Z,6.40
2018-03-24T08:10:32.917Z,6.50
2018-03-24T08:13:01.236Z,6.60
2018-03-24T08:15:28.775Z,6.60
2018-03-24T08:17:56.306Z,6.70
2018-03-24T08:20:23.891Z,6.90
2018-03-24T08:22:51.405Z,7.00
2018-03-24T08:25:19.857Z,7.10
2018-03-24T08:27:47.391Z,7.10
2018-03-24T08:30:14.914Z,7.10
2018-03-24T08:32:43.217Z,6.90
2018-03-24T08:35:10.728Z,6.80
2018-03-24T08:37:38.286Z,6.90
2018-03-24T08:40:05.804Z,7.10
2018-03-24T08:42:34.109Z,7.00
2018-03-24T08:45:01.624Z,7.00
2018-03-24T08:47:29.156Z,7.00
2018-03-24T08:49:57.449Z,7.20
2018-03-24T08:52:25.008Z,7.20
2018-03-24T08:54:52.532Z,7.30
2018-03-24T08:57:20.083Z,7.40
2018-03-24T08:59:49.524Z,7.50
2018-03-24T09:02:17.053Z,7.50
2018-03-24T09:04:45.539Z,7.50
2018-03-24T09:07:13.075Z,7.30
2018-03-24T09:09:40.612Z,7.30
2018-03-24T09:12:08.238Z,7.40
2018-03-24T09:14:35.773Z,7.50
2018-03-24T09:17:04.298Z,7.60
2018-03-24T09:19:32.580Z,7.80
2018-03-24T09:22:00.103Z,7.80
2018-03-24T09:24:28.413Z,8.00
2018-03-24T09:26:55.938Z,8.00
2018-03-24T09:29:23.473Z,8.10
2018-03-24T09:31:51.045Z,8.20
2018-03-24T09:34:18.576Z,8.40
2018-03-24T09:36:46.097Z,8.60
2018-03-24T09:39:13.670Z,8.60
2018-03-24T09:41:41.191Z,8.70
2018-03-24T09:44:08.729Z,8.80
2018-03-24T09:46:36.255Z,8.90
2018-03-24T09:49:04.573Z,9.00
2018-03-24T09:51:32.096Z,9.00
2018-03-24T09:53:59.632Z,9.20
2018-03-24T09:56:27.158Z,9.40
2018-03-24T09:58:55.461Z,9.50
2018-03-24T10:01:22.981Z,9.50
2018-03-24T10:03:50.517Z,9.60
2018-03-24T10:06:18.100Z,9.70
2018-03-24T10:08:45.642Z,9.80
2018-03-24T10:11:13.167Z,9.90
2018-03-24T10:13:40.709Z,9.90
2018-03-24T10:16:08.279Z,10.20
2018-03-24T10:18:35.825Z,10.00
2018-03-24T10:24:29.788Z,9.70
2018-03-24T10:26:57.300Z,9.80
2018-03-24T10:29:24.841Z,10.00
2018-03-24T10:31:52.520Z,10.00
2018-03-24T10:34:20.151Z,10.20
2018-03-24T10:36:47.716Z,10.30
2018-03-24T10:39:15.252Z,10.40
2018-03-24T10:41:42.775Z,10.60
2018-03-24T10:44:10.332Z,10.70
2018-03-24T10:46:37.861Z,10.50
2018-03-24T10:49:05.420Z,10.50
2018-03-24T10:51:32.952Z,10.70
2018-03-24T10:54:00.483Z,10.60
2018-03-24T10:56:28.038Z,10.60
2018-03-24T10:58:55.575Z,10.60
2018-03-24T11:01:23.974Z,10.40
2018-03-24T11:03:51.496Z,10.40
2018-03-24T11:06:19.046Z,10.60
2018-03-24T11:08:46.573Z,10.50
2018-03-24T11:11:14.143Z,10.50
2018-03-24T11:13:41.659Z,10.50
2018-03-24T11:16:09.204Z,10.50
2018-03-24T11:18:36.738Z,10.40
2018-03-24T11:21:05.052Z,10.00
2018-03-24T11:23:32.596Z,9.90
2018-03-24T11:26:00.150Z,9.90
2018-03-24T11:28:27.668Z,10.00
2018-03-24T11:30:55.193Z,10.00
2018-03-24T11:33:22.740Z,10.00
2018-03-24T11:35:50.270Z,10.10
2018-03-24T11:38:18.575Z,9.90
2018-03-24T11:40:46.129Z,9.90
2018-03-24T11:43:13.868Z,9.90
2018-03-24T11:45:41.428Z,10.10
2018-03-24T11:48:08.994Z,10.30
2018-03-24T11:50:36.523Z,10.20
2018-03-24T11:53:04.078Z,10.20
2018-03-24T11:55:31.593Z,10.30
2018-03-24T11:57:59.132Z,10.30
2018-03-24T12:00:26.660Z,10.30
2018-03-24T12:02:54.265Z,10.30
2018-03-24T12:05:22.569Z,10.30
2018-03-24T12:07:50.333Z,10.30
2018-03-24T12:10:17.865Z,10.20
2018-03-24T12:12:45.405Z,10.20
2018-03-24T12:15:13.188Z,10.10
2018-03-24T12:17:40.823Z,10.10
2018-03-24T12:20:08.343Z,10.30
2018-03-24T12:22:35.895Z,10.40
2018-03-24T12:25:03.438Z,10.60
2018-03-24T12:27:30.988Z,10.70
2018-03-24T12:29:58.504Z,10.60
2018-03-24T12:32:26.029Z,10.70
2018-03-24T12:34:54.328Z,10.70
2018-03-24T12:37:21.853Z,10.70
2018-03-24T12:39:49.443Z,10.90
2018-03-24T12:42:16.975Z,11.10
2018-03-24T12:44:44.520Z,11.00
2018-03-24T12:47:12.044Z,11.20
2018-03-24T12:49:39.581Z,11.30
2018-03-24T12:52:07.156Z,11.30
2018-03-24T12:54:34.696Z,11.40
2018-03-24T12:57:02.237Z,11.50
2018-03-24T12:59:29.834Z,11.60
2018-03-24T13:01:58.146Z,12.00
2018-03-24T13:04:26.818Z,12.30
2018-03-24T13:06:54.392Z,12.30
2018-03-24T13:09:21.938Z,12.40
2018-03-24T13:11:49.585Z,12.30
2018-03-24T13:14:17.135Z,12.40
2018-03-24T13:16:45.662Z,12.30
2018-03-24T13:19:14.135Z,12.20
2018-03-24T13:21:41.648Z,12.20
2018-03-24T13:24:09.205Z,12.50
2018-03-24T13:26:36.890Z,12.60
2018-03-24T13:29:04.465Z,12.50
2018-03-24T13:31:32.784Z,12.00
2018-03-24T13:34:00.326Z,12.00
2018-03-24T13:36:27.846Z,11.90
2018-03-24T13:38:55.398Z,11.80
2018-03-24T13:41:22.953Z,11.90
2018-03-24T13:43:50.504Z,12.00
2018-03-24T13:46:18.048Z,12.00
2018-03-24T13:48:45.572Z,12.00
2018-03-24T13:51:13.115Z,12.20
2018-03-24T13:53:40.636Z,12.20
2018-03-24T13:56:08.941Z,12.50
2018-03-24T13:58:36.505Z,12.50
2018-03-24T14:01:04.045Z,12.20
2018-03-24T14:03:31.576Z,12.10
2018-03-24T14:06:00.153Z,11.80
2018-03-24T14:08:27.764Z,11.70
2018-03-24T14:10:55.309Z,11.60
2018-03-24T14:13:22.849Z,11.40
2018-03-24T14:15:50.397Z,11.40
2018-03-24T14:18:17.999Z,11.40
2018-03-24T14:20:45.537Z,11.10
2018-03-24T14:23:13.596Z,11.20
2018-03-24T14:25:41.194Z,11.40
2018-03-24T14:28:08.764Z,11.70
2018-03-24T14:30:36.305Z,11.90
2018-03-24T14:33:03.819Z,11.70
2018-03-24T14:35:31.360Z,11.80
2018-03-24T14:37:58.912Z,11.90
2018-03-24T14:40:26.477Z,12.00
2018-03-24T14:42:53.992Z,12.10
2018-03-24T14:45:21.537Z,12.10
2018-03-24T14:47:49.109Z,12.10
2018-03-24T14:50:16.756Z,12.00
2018-03-24T14:52:44.275Z,11.90
2018-03-24T14:55:11.821Z,11.90
2018-03-24T14:57:39.372Z,11.80
2018-03-24T15:00:06.892Z,11.60
2018-03-24T15:02:35.197Z,11.10
2018-03-24T15:05:02.735Z,11.00
2018-03-24T15:07:30.289Z,10.90
2018-03-24T15:09:57.828Z,10.80
2018-03-24T15:12:25.446Z,10.60
2018-03-24T15:14:52.928Z,10.70
2018-03-24T15:17:20.513Z,10.80
2018-03-24T15:19:48.810Z,10.80
2018-03-24T15:22:16.350Z,10.80
2018-03-24T15:24:43.872Z,10.70
2018-03-24T15:27:11.407Z,10.70
2018-03-24T15:29:51.682Z,10.70
2018-03-24T15:32:31.068Z,10.70
2018-03-24T15:35:11.426Z,11.00
2018-03-24T15:37:39.038Z,11.00
2018-03-24T15:40:06.570Z,11.00
2018-03-24T15:42:34.127Z,11.00
2018-03-24T15:45:01.644Z,11.00
2018-03-24T15:47:30.717Z,11.30
2018-03-24T15:49:58.245Z,11.30
2018-03-24T15:52:25.864Z,11.50
2018-03-24T15:54:54.157Z,11.90
2018-03-24T15:57:21.695Z,11.90
2018-03-24T15:59:49.225Z,12.00
2018-03-24T16:02:16.768Z,12.00
2018-03-24T16:04:44.293Z,12.20
2018-03-24T16:07:12.711Z,12.80
2018-03-24T16:09:40.240Z,12.80
2018-03-24T16:12:07.777Z,12.90
2018-03-24T16:14:35.312Z,13.10
2018-03-24T16:17:03.765Z,13.40
2018-03-24T16:19:32.060Z,14.20
2018-03-24T16:21:59.603Z,14.20
2018-03-24T16:24:27.161Z,14.30
2018-03-24T16:26:54.693Z,14.30
2018-03-24T16:29:22.253Z,14.40
2018-03-24T16:31:50.610Z,14.30
2018-03-24T16:34:18.162Z,14.30
2018-03-24T16:36:45.703Z,14.30
2018-03-24T16:39:13.275Z,14.10
2018-03-24T16:41:40.805Z,13.80
2018-03-24T16:44:08.417Z,13.50
2018-03-24T16:46:35.961Z,13.30
2018-03-24T16:49:03.508Z,13.10
2018-03-24T16:51:31.191Z,12.70
2018-03-24T16:53:58.726Z,12.00
2018-03-24T16:56:26.423Z,11.30
2018-03-24T16:58:53.940Z,10.70
2018-03-24T17:01:21.490Z,10.20
2018-03-24T17:03:49.508Z,9.70
2018-03-24T17:06:17.053Z,9.20
2018-03-24T17:08:45.442Z,8.60
2018-03-24T17:11:12.981Z,8.50
2018-03-24T17:13:40.524Z,8.30
2018-03-24T17:16:08.041Z,8.10
2018-03-24T17:18:35.934Z,7.90
2018-03-24T17:21:04.254Z,7.40
2018-03-24T17:23:32.814Z,7.40
2018-03-24T17:26:00.340Z,7.20
2018-03-24T17:28:27.868Z,6.90
2018-03-24T17:30:55.396Z,6.80
2018-03-24T17:33:23.700Z,6.60
2018-03-24T17:35:51.232Z,6.60
2018-03-24T17:38:18.757Z,6.50
2018-03-24T17:40:47.068Z,6.30
2018-03-24T17:43:14.580Z,6.20
2018-03-24T17:45:43.118Z,6.00
2018-03-24T17:48:11.499Z,5.90
2018-03-24T17:50:39.806Z,5.70
2018-03-24T17:53:07.361Z,5.70
2018-03-24T17:55:35.004Z,5.60
2018-03-24T17:58:02.568Z,5.50
2018-03-24T18:00:30.165Z,5.40
2018-03-24T18:02:57.702Z,5.30
2018-03-24T18:05:25.451Z,5.20
2018-03-24T18:07:52.985Z,5.20
2018-03-24T18:10:20.526Z,5.00
2018-03-24T18:12:48.101Z,4.90
2018-03-24T18:15:15.642Z,4.90
2018-03-24T18:17:43.171Z,4.80
2018-03-24T18:20:10.732Z,4.80
2018-03-24T18:22:38.258Z,4.80
2018-03-24T18:25:05.796Z,4.80
2018-03-24T18:27:34.077Z,4.70
2018-03-24T18:30:01.618Z,4.70
2018-03-24T18:32:29.140Z,4.70
2018-03-24T18:34:57.444Z,4.60
2018-03-24T18:37:24.990Z,4.60
2018-03-24T18:39:52.544Z,4.60
2018-03-24T18:42:20.080Z,4.50
2018-03-24T18:44:47.627Z,4.50
2018-03-24T18:47:15.157Z,4.50
2018-03-24T18:49:42.708Z,4.50
2018-03-24T18:52:10.237Z,4.50
2018-03-24T18:54:37.767Z,4.40
2018-03-24T18:57:05.314Z,4.40
2018-03-24T18:59:32.837Z,4.40
2018-03-24T19:02:01.170Z,4.30
2018-03-24T19:04:28.698Z,4.30
2018-03-24T19:06:56.237Z,4.20
2018-03-24T19:09:23.832Z,4.20
2018-03-24T19:11:51.469Z,4.20
2018-03-24T19:14:19.083Z,4.20
2018-03-24T19:16:46.616Z,4.10
2018-03-24T19:19:14.133Z,4.10
2018-03-24T19:21:42.554Z,4.00
2018-03-24T19:24:10.105Z,4.00
2018-03-24T19:26:37.669Z,4.00
2018-03-24T19:29:05.959Z,3.90
2018-03-24T19:31:33.567Z,3.90
2018-03-24T19:34:01.102Z,3.90
2018-03-24T19:36:28.661Z,3.80
2018-03-24T19:38:56.274Z,3.70
2018-03-24T19:41:23.847Z,3.70
2018-03-24T19:43:52.176Z,3.60
2018-03-24T19:46:19.717Z,3.60
2018-03-24T19:48:47.269Z,3.70
2018-03-24T19:51:14.805Z,3.70
2018-03-24T19:53:42.342Z,3.60
2018-03-24T19:56:09.893Z,3.60
2018-03-24T19:58:37.446Z,3.60
2018-03-24T20:01:04.984Z,3.60
2018-03-24T20:03:32.581Z,3.50
2018-03-24T20:06:00.879Z,3.50
2018-03-24T20:08:28.425Z,3.40
2018-03-24T20:10:55.962Z,3.50
2018-03-24T20:13:23.479Z,3.50
2018-03-24T20:15:51.778Z,3.40
2018-03-24T20:18:19.358Z,3.40
2018-03-24T20:20:46.980Z,3.50
2018-03-24T20:23:14.518Z,3.40
2018-03-24T20:25:42.174Z,3.40
2018-03-24T20:28:09.708Z,3.40
2018-03-24T20:30:37.234Z,3.30
2018-03-24T20:33:04.766Z,3.30
2018-03-24T20:35:32.285Z,3.30
2018-03-24T20:38:00.626Z,3.30
2018-03-24T20:40:28.149Z,3.20
2018-03-24T20:42:55.701Z,3.20
2018-03-24T20:45:23.237Z,3.20
2018-03-24T20:47:50.804Z,3.20
2018-03-24T20:50:18.343Z,3.20
2018-03-24T20:52:45.889Z,3.20
2018-03-24T20:55:13.413Z,3.10
2018-03-24T20:57:40.948Z,3.00
2018-03-24T21:00:08.486Z,2.90
2018-03-24T21:02:36.008Z,2.90
2018-03-24T21:05:04.317Z,2.90
2018-03-24T21:07:31.863Z,2.90
2018-03-24T21:10:00.505Z,2.90
2018-03-24T21:12:28.034Z,2.90
2018-03-24T21:14:55.612Z,2.90
2018-03-24T21:17:23.153Z,2.90
2018-03-24T21:19:50.685Z,2.90
2018-03-24T21:22:18.224Z,2.90
2018-03-24T21:24:45.796Z,2.90
2018-03-24T21:27:13.323Z,2.90
2018-03-24T21:29:40.888Z,2.90
2018-03-24T21:32:08.413Z,2.90
2018-03-24T21:34:35.969Z,2.90
2018-03-24T21:37:04.060Z,2.90
2018-03-24T21:39:31.845Z,2.80
2018-03-24T21:41:59.372Z,2.90
2018-03-24T21:44:27.668Z,2.90
2018-03-24T21:46:55.208Z,2.90
2018-03-24T21:49:22.948Z,2.90
2018-03-24T21:51:50.573Z,2.80
2018-03-24T21:54:18.925Z,2.80
2018-03-24T21:56:46.445Z,2.70
2018-03-24T21:59:13.989Z,2.70
2018-03-24T22:01:41.508Z,2.70
2018-03-24T22:04:09.375Z,2.70
2018-03-24T22:06:36.920Z,2.70
2018-03-24T22:09:04.482Z,2.70
2018-03-24T22:11:32.969Z,2.60
2018-03-24T22:14:00.555Z,2.60
2018-03-24T22:16:28.161Z,2.50
2018-03-24T22:18:55.639Z,2.50
2018-03-24T22:21:25.105Z,2.50
2018-03-24T22:23:53.388Z,2.40
2018-03-24T22:26:21.054Z,2.40
2018-03-24T22:28:48.681Z,2.40
2018-03-24T22:31:16.219Z,2.40
2018-03-24T22:33:43.733Z,2.40
2018-03-24T22:36:11.385Z,2.40
2018-03-24T22:38:39.686Z,2.30
2018-03-24T22:41:07.224Z,2.30
2018-03-24T22:43:34.749Z,2.30
2018-03-24T22:46:03.044Z,2.40
2018-03-24T22:48:30.582Z,2.30
2018-03-24T22:50:58.128Z,2.40
2018-03-24T22:53:25.644Z,2.30
2018-03-24T22:55:53.231Z,2.30
2018-03-24T22:58:20.816Z,2.30
2018-03-24T23:00:48.336Z,2.30
2018-03-24T23:03:15.850Z,2.40
2018-03-24T23:05:43.644Z,2.40
2018-03-24T23:08:11.154Z,2.40
2018-03-24T23:10:38.701Z,2.40
2018-03-24T23:13:06.233Z,2.40
2018-03-24T23:15:33.767Z,2.40
2018-03-24T23:18:01.285Z,2.30
2018-03-24T23:20:29.587Z,2.20
2018-03-24T23:22:57.123Z,2.20
2018-03-24T23:25:24.654Z,2.10
2018-03-24T23:27:52.192Z,2.20
2018-03-24T23:30:19.724Z,2.20
2018-03-24T23:32:48.133Z,2.10
2018-03-24T23:35:15.647Z,2.10
2018-03-24T23:37:43.225Z,2.10
2018-03-24T23:40:10.765Z,2.00
2018-03-24T23:42:38.360Z,2.00
2018-03-24T23:45:06.641Z,1.90
2018-03-24T23:47:34.202Z,1.90
2018-03-24T23:50:01.747Z,1.90
2018-03-24T23:52:29.333Z,1.90
2018-03-24T23:54:56.827Z,1.90
2018-03-24T23:57:24.400Z,1.80
2018-03-24T23:59:51.923Z,1.80
